Time;durP1;ratioP1;P1;durP2;ratioP2;P2;SDS_P1;SDS_P2;PMS_P1;PMS_P2;Temp;Humidity;BMP_temperature;BMP_pressure;BME280_temperature;BME280_humidity;BME280_pressure;Samples;Min_cycle;Max_cycle;Signal;HPM_P1;HPM_P2
2022/06/24 00:00:13;;;;;;;3.83;2.70;;;;;;;14.56;100.00;100033.22;1735863;81;21476;-43
2022/06/24 00:02:40;;;;;;;2.58;2.40;;;;;;;14.55;100.00;100028.92;1735106;82;20885;-43
2022/06/24 00:05:13;;;;;;;5.62;2.50;;;;;;;14.54;100.00;100029.83;1735934;82;21241;-43
2022/06/24 00:07:50;;;;;;;5.13;3.30;;;;;;;14.52;100.00;100025.11;1716452;82;20893;-43
2022/06/24 00:10:34;;;;;;;2.98;2.58;;;;;;;14.49;100.00;100029.15;1736014;82;20894;-43
2022/06/24 00:13:01;;;;;;;4.67;2.47;;;;;;;14.47;100.00;100033.14;1736010;82;20946;-43
2022/06/24 00:15:34;;;;;;;3.10;2.90;;;;;;;14.47;100.00;100036.19;1736062;82;21067;-43
2022/06/24 00:18:18;;;;;;;3.20;2.90;;;;;;;14.47;100.00;100032.28;1736226;82;21213;-43
2022/06/24 00:20:47;;;;;;;5.30;2.50;;;;;;;14.45;100.00;100030.19;1735931;82;21499;-43
2022/06/24 00:23:21;;;;;;;5.58;2.85;;;;;;;14.43;100.00;100030.71;1735935;82;20969;-43
2022/06/24 00:25:49;;;;;;;4.30;2.90;;;;;;;14.42;100.00;100021.21;1736017;82;21456;-43
2022/06/24 00:28:16;;;;;;;4.40;2.80;;;;;;;14.41;100.00;100028.63;1736071;82;21032;-43
2022/06/24 00:30:46;;;;;;;5.28;3.27;;;;;;;14.40;100.00;100025.64;1735936;82;21092;-43
2022/06/24 00:33:19;;;;;;;8.63;3.72;;;;;;;14.40;100.00;100020.42;1734032;82;21095;-43
2022/06/24 00:35:52;;;;;;;4.30;3.42;;;;;;;14.40;100.00;100027.80;1735619;82;21408;-43
2022/06/24 00:38:35;;;;;;;4.30;3.00;;;;;;;14.42;100.00;100029.02;1735871;82;20964;-43
2022/06/24 00:41:11;;;;;;;3.50;3.30;;;;;;;14.44;100.00;100032.41;1735781;82;20877;-43
2022/06/24 00:43:46;;;;;;;6.80;3.00;;;;;;;14.43;100.00;100032.88;1735827;82;22162;-43
2022/06/24 00:46:17;;;;;;;5.42;3.00;;;;;;;14.47;100.00;100029.67;1736074;82;20980;-43
2022/06/24 00:48:52;;;;;;;7.60;3.50;;;;;;;14.47;100.00;100023.16;1715382;82;21005;-43
2022/06/24 00:51:20;;;;;;;5.25;3.22;;;;;;;14.48;100.00;100033.53;1735625;82;20910;-44
2022/06/24 00:53:54;;;;;;;3.50;3.20;;;;;;;14.51;100.00;100036.00;1746353;81;20932;-43
2022/06/24 00:56:27;;;;;;;6.10;3.20;;;;;;;14.54;100.00;100037.64;1749582;82;21237;-43
2022/06/24 00:59:07;;;;;;;6.08;3.35;;;;;;;14.56;100.00;100034.95;1750101;80;20879;-43
2022/06/24 01:01:39;;;;;;;6.25;3.42;;;;;;;14.59;100.00;100037.43;1750110;82;21427;-43
2022/06/24 01:04:08;;;;;;;3.55;3.25;;;;;;;14.60;100.00;100045.63;1749837;82;20988;-43
2022/06/24 01:06:39;;;;;;;3.47;3.15;;;;;;;14.62;100.00;100051.19;1749909;81;20924;-43
2022/06/24 01:09:07;;;;;;;3.35;3.15;;;;;;;14.63;100.00;100043.76;1749549;82;21234;-43
2022/06/24 01:11:42;;;;;;;5.45;3.20;;;;;;;14.64;100.00;100033.73;1749929;82;21430;-43
2022/06/24 01:14:09;;;;;;;5.35;3.17;;;;;;;14.66;100.00;100046.23;1722893;82;20956;-43
2022/06/24 01:16:36;;;;;;;13.78;3.85;;;;;;;14.70;100.00;100050.00;1749980;81;21008;-43
2022/06/24 01:19:09;;;;;;;4.30;3.42;;;;;;;14.73;100.00;100049.46;1750149;82;20933;-43
2022/06/24 01:21:45;;;;;;;7.83;3.50;;;;;;;14.75;100.00;100046.33;1749921;82;21200;-43
2022/06/24 01:24:19;;;;;;;7.67;3.20;;;;;;;14.79;100.00;100058.79;1750227;82;21446;-43
2022/06/24 01:26:53;;;;;;;3.72;3.42;;;;;;;14.83;100.00;100057.73;1749584;82;21464;-43
2022/06/24 01:29:20;;;;;;;5.33;3.62;;;;;;;14.87;100.00;100055.83;1749912;82;21471;-43
2022/06/24 01:31:48;;;;;;;4.22;3.67;;;;;;;14.89;100.00;100052.26;1749946;81;21059;-43
2022/06/24 01:34:20;;;;;;;3.77;3.42;;;;;;;14.93;100.00;100053.81;1749961;81;21051;-43
2022/06/24 01:36:47;;;;;;;6.53;3.27;;;;;;;14.96;100.00;100046.77;1749859;82;21474;-43
2022/06/24 01:39:13;;;;;;;7.30;4.28;;;;;;;14.98;100.00;100043.64;1749831;81;20888;-43
2022/06/24 01:41:41;;;;;;;6.85;3.98;;;;;;;15.00;100.00;100047.03;1749890;81;20972;-43
2022/06/24 01:44:08;;;;;;;9.95;4.20;;;;;;;15.02;100.00;100037.37;1750101;81;20936;-43
2022/06/24 01:46:34;;;;;;;7.00;4.08;;;;;;;15.03;100.00;100037.77;1749808;81;21853;-43
2022/06/24 01:49:01;;;;;;;7.60;3.83;;;;;;;15.04;100.00;100037.72;1749972;81;20841;-43
2022/06/24 01:51:28;;;;;;;5.97;4.00;;;;;;;15.06;100.00;100041.58;1750124;82;20916;-43
2022/06/24 01:53:55;;;;;;;10.20;4.08;;;;;;;15.07;100.00;100034.14;1719045;82;20991;-43
2022/06/24 01:56:22;;;;;;;12.80;3.75;;;;;;;15.09;100.00;100032.31;1746320;82;20964;-43
2022/06/24 01:58:48;;;;;;;7.80;4.30;;;;;;;15.10;100.00;100039.22;1746341;81;21223;-43
2022/06/24 02:01:17;;;;;;;6.67;3.58;;;;;;;15.11;100.00;100040.91;1746070;81;20940;-43
2022/06/24 02:03:43;;;;;;;7.28;3.60;;;;;;;15.12;100.00;100037.38;1746244;82;20837;-43
2022/06/24 02:06:11;;;;;;;9.95;3.77;;;;;;;15.12;100.00;100032.17;1746358;82;20914;-42
2022/06/24 02:08:38;;;;;;;5.90;4.00;;;;;;;15.14;100.00;100035.55;1746451;82;21423;-42
2022/06/24 02:13:51;;;;;;;8.65;4.50;;;;;;;15.15;100.00;100035.94;1746437;82;28497;-42
2022/06/24 02:16:18;;;;;;;8.68;4.65;;;;;;;15.15;100.00;100037.25;1746228;82;20936;-42
2022/06/24 02:18:45;;;;;;;7.62;4.10;;;;;;;15.17;100.00;100034.11;1716780;82;20952;-42
2022/06/24 02:21:12;;;;;;;4.10;3.80;;;;;;;15.19;100.00;100036.19;1746260;82;20896;-42
2022/06/24 02:23:39;;;;;;;7.35;3.80;;;;;;;15.21;100.00;100041.35;1746509;82;21438;-43
2022/06/24 02:26:07;;;;;;;4.70;4.17;;;;;;;15.22;100.00;100036.52;1746028;82;21454;-43
2022/06/24 02:28:34;;;;;;;7.20;3.80;;;;;;;15.21;100.00;100030.45;1746108;81;20949;-43
2022/06/24 02:31:01;;;;;;;9.98;4.03;;;;;;;15.21;100.00;100036.13;1746067;81;21427;-43
2022/06/24 02:33:28;;;;;;;4.97;3.70;;;;;;;15.21;100.00;100035.66;1746147;81;20983;-43
2022/06/24 02:35:55;;;;;;;6.33;4.10;;;;;;;15.22;100.00;100032.14;1746151;82;21103;-43
2022/06/24 02:38:22;;;;;;;9.03;3.85;;;;;;;15.23;100.00;100039.52;1746127;81;20999;-43
2022/06/24 02:40:48;;;;;;;7.47;3.83;;;;;;;15.23;100.00;100036.44;1746331;82;20948;-43
2022/06/24 02:43:28;;;;;;;13.35;4.20;;;;;;;15.28;100.00;100039.29;1746235;82;21031;-43
2022/06/24 02:46:06;;;;;;;6.45;3.65;;;;;;;15.30;100.00;100033.11;1746260;80;20909;-43
2022/06/24 02:48:35;;;;;;;6.00;3.50;;;;;;;15.36;100.00;100034.13;1745168;82;21219;-43
2022/06/24 02:51:04;;;;;;;4.30;3.90;;;;;;;15.42;100.00;100039.53;1745980;81;20920;-43
2022/06/24 02:53:32;;;;;;;8.63;4.03;;;;;;;15.48;100.00;100036.63;1747452;81;20893;-43
2022/06/24 02:56:10;;;;;;;3.60;3.30;;;;;;;15.51;100.00;100033.88;1749846;81;21450;-43
2022/06/24 02:58:37;;;;;;;4.33;3.47;;;;;;;15.52;100.00;100025.14;1750219;82;20940;-43
2022/06/24 03:01:04;;;;;;;7.65;4.00;;;;;;;15.54;100.00;100019.87;1750013;82;21149;-43
2022/06/24 03:03:31;;;;;;;5.70;4.17;;;;;;;15.54;100.00;100019.04;1749792;81;21406;-42
2022/06/24 03:05:58;;;;;;;7.65;3.47;;;;;;;15.56;100.00;100027.16;1749902;82;20944;-42
2022/06/24 03:08:26;;;;;;;10.38;3.50;;;;;;;15.61;100.00;100033.48;1749842;82;20936;-42
2022/06/24 03:10:55;;;;;;;9.60;4.00;;;;;;;15.68;100.00;100029.66;1749879;82;20908;-42
2022/06/24 03:13:22;;;;;;;3.92;3.62;;;;;;;15.74;100.00;100033.75;1749892;82;21812;-43
2022/06/24 03:15:48;;;;;;;10.50;3.90;;;;;;;15.80;100.00;100031.71;1749927;82;21015;-43
2022/06/24 03:18:16;;;;;;;6.08;4.10;;;;;;;15.88;100.00;100026.58;1749968;82;20932;-43
2022/06/24 03:20:43;;;;;;;8.23;4.25;;;;;;;15.93;100.00;100036.37;1749867;82;21375;-42
2022/06/24 03:23:10;;;;;;;5.35;3.47;;;;;;;15.95;100.00;100041.05;1749926;82;20971;-43
2022/06/24 03:25:37;;;;;;;6.25;4.15;;;;;;;16.00;100.00;100046.89;1749957;82;21252;-43
2022/06/24 03:28:04;;;;;;;9.85;3.67;;;;;;;16.05;100.00;100047.55;1749848;82;21039;-43
2022/06/24 03:30:32;;;;;;;4.80;3.62;;;;;;;16.12;100.00;100053.77;1749882;81;20865;-43
2022/06/24 03:33:00;;;;;;;6.12;3.65;;;;;;;16.17;100.00;100051.78;1749813;82;20936;-43
2022/06/24 03:35:27;;;;;;;7.60;3.70;;;;;;;16.23;100.00;100054.08;1750023;82;20884;-43
2022/06/24 03:37:54;;;;;;;5.45;3.25;;;;;;;16.30;100.00;100054.64;1750031;82;21809;-43
2022/06/24 03:40:21;;;;;;;8.15;3.40;;;;;;;16.40;100.00;100065.48;1749858;81;20900;-43
2022/06/24 03:42:47;;;;;;;4.12;3.75;;;;;;;16.48;100.00;100060.72;1749989;82;20968;-43
2022/06/24 03:45:14;;;;;;;9.65;3.80;;;;;;;16.55;100.00;100064.74;1749626;81;20920;-43
2022/06/24 03:47:41;;;;;;;7.42;3.62;;;;;;;16.65;100.00;100063.80;1750061;82;20925;-43
2022/06/24 03:50:09;;;;;;;7.47;3.65;;;;;;;16.75;100.00;100068.95;1749974;81;21149;-43
2022/06/24 03:52:35;;;;;;;6.15;3.35;;;;;;;16.79;100.00;100065.71;1749887;82;21308;-43
2022/06/24 03:55:03;;;;;;;11.15;3.47;;;;;;;16.80;100.00;100064.82;1738208;82;20897;-43
2022/06/24 03:57:30;;;;;;;8.30;3.40;;;;;;;16.83;100.00;100062.05;1736044;82;20977;-43
2022/06/24 03:59:57;;;;;;;4.17;3.87;;;;;;;16.86;100.00;100063.19;1736035;81;20984;-43
2022/06/24 04:02:23;;;;;;;5.42;3.55;;;;;;;16.91;100.00;100058.56;1735988;82;21226;-42
2022/06/24 04:04:50;;;;;;;6.12;3.17;;;;;;;17.01;100.00;100062.03;1715197;82;20937;-43
2022/06/24 04:09:18;;;;;;;7.87;3.72;;;;;;;17.13;100.00;100062.72;1798539;79;22572;-43
2022/06/24 04:11:45;;;;;;;6.45;3.20;;;;;;;17.18;100.00;100071.16;1739256;81;20972;-43
2022/06/24 04:14:12;;;;;;;9.38;3.60;;;;;;;17.29;100.00;100067.13;1758188;80;21072;-43
2022/06/24 04:16:38;;;;;;;14.58;4.03;;;;;;;17.40;100.00;100068.73;1758234;81;21457;-43
2022/06/24 04:19:06;;;;;;;7.08;3.42;;;;;;;17.50;100.00;100067.30;1758206;81;20983;-43
2022/06/24 04:21:33;;;;;;;9.90;3.92;;;;;;;17.58;100.00;100073.44;1758084;81;20928;-43
2022/06/24 04:24:00;;;;;;;5.42;4.00;;;;;;;17.66;100.00;100075.16;1758153;81;20888;-44
2022/06/24 04:26:27;;;;;;;5.12;3.80;;;;;;;17.72;100.00;100089.70;1758144;81;21198;-43
2022/06/24 04:28:54;;;;;;;11.15;3.80;;;;;;;17.75;100.00;100086.91;1758040;81;21588;-43
2022/06/24 04:31:20;;;;;;;9.73;3.92;;;;;;;17.74;100.00;100092.25;1758167;81;21003;-43
2022/06/24 04:33:47;;;;;;;13.40;4.15;;;;;;;17.72;100.00;100089.70;1758138;81;20944;-43
2022/06/24 04:36:14;;;;;;;12.35;4.00;;;;;;;17.68;100.00;100093.41;1758147;81;20924;-43
2022/06/24 04:38:41;;;;;;;7.97;4.47;;;;;;;17.59;100.00;100088.69;1758048;80;21241;-44
2022/06/24 04:41:13;;;;;;;4.58;3.87;;;;;;;17.55;100.00;100087.13;1758086;81;20873;-43
2022/06/24 04:43:39;;;;;;;5.25;4.35;;;;;;;17.50;100.00;100094.77;1758024;81;20921;-42
2022/06/24 04:46:06;;;;;;;8.23;4.10;;;;;;;17.49;100.00;100101.41;1758108;81;21434;-42
2022/06/24 04:48:34;;;;;;;9.05;4.25;;;;;;;17.45;100.00;100102.03;1758111;81;20980;-42
2022/06/24 04:51:02;;;;;;;9.30;4.37;;;;;;;17.42;100.00;100100.88;1758370;81;21549;-43
2022/06/24 04:53:30;;;;;;;5.55;4.55;;;;;;;17.41;100.00;100099.64;1758101;81;20932;-43
2022/06/24 04:55:59;;;;;;;8.53;4.53;;;;;;;17.40;100.00;100105.80;1757995;81;21410;-42
2022/06/24 04:58:26;;;;;;;12.65;4.50;;;;;;;17.42;100.00;100104.81;1758117;81;21007;-43
2022/06/24 05:00:53;;;;;;;10.72;4.45;;;;;;;17.51;100.00;100106.09;1758146;80;20964;-43
2022/06/24 05:03:19;;;;;;;6.90;4.42;;;;;;;17.61;100.00;100108.59;1755471;81;21239;-43
2022/06/24 05:05:46;;;;;;;12.10;4.72;;;;;;;17.70;100.00;100105.95;1716549;83;20893;-42
2022/06/24 05:08:14;;;;;;;7.37;4.55;;;;;;;17.77;100.00;100116.94;1703639;83;20912;-43
2022/06/24 05:10:41;;;;;;;9.63;4.67;;;;;;;17.85;100.00;100123.91;1696570;83;20995;-43
2022/06/24 05:13:09;;;;;;;9.70;4.53;;;;;;;17.89;100.00;100128.05;1696466;83;20944;-43
2022/06/24 05:15:36;;;;;;;11.10;4.78;;;;;;;17.91;100.00;100131.90;1696397;83;21229;-43
2022/06/24 05:18:03;;;;;;;5.35;4.92;;;;;;;17.94;100.00;100132.59;1696546;84;21502;-43
2022/06/24 05:20:30;;;;;;;11.25;6.25;;;;;;;17.92;100.00;100143.58;1696138;84;21514;-43
2022/06/24 05:22:57;;;;;;;10.03;6.00;;;;;;;17.94;100.00;100144.81;1696085;84;20996;-43
2022/06/24 05:25:24;;;;;;;8.53;6.25;;;;;;;18.01;100.00;100142.72;1696090;83;20957;-42
2022/06/24 05:27:51;;;;;;;8.63;6.67;;;;;;;18.02;100.00;100138.72;1696133;84;21137;-42
2022/06/24 05:30:18;;;;;;;10.13;6.25;;;;;;;18.03;100.00;100144.34;1696044;84;21058;-43
2022/06/24 05:32:45;;;;;;;10.50;6.83;;;;;;;18.04;100.00;100136.03;1695831;84;21477;-42
2022/06/24 05:35:12;;;;;;;7.28;6.60;;;;;;;18.05;100.00;100137.23;1696113;84;21008;-43
2022/06/24 05:37:39;;;;;;;12.18;7.60;;;;;;;18.05;100.00;100142.48;1666611;84;21015;-43
2022/06/24 05:40:08;;;;;;;13.53;7.33;;;;;;;18.03;100.00;100140.41;1696012;84;21202;-43
2022/06/24 05:42:35;;;;;;;12.33;6.85;;;;;;;18.04;100.00;100142.58;1695953;84;21422;-43
2022/06/24 05:45:02;;;;;;;9.10;7.15;;;;;;;18.03;100.00;100144.34;1696094;84;21004;-43
2022/06/24 05:47:29;;;;;;;12.20;7.90;;;;;;;18.01;100.00;100146.20;1696292;84;21609;-43
2022/06/24 05:49:56;;;;;;;10.13;7.37;;;;;;;18.03;100.00;100144.34;1696101;83;20984;-42
2022/06/24 05:55:08;;;;;;;13.60;7.65;;;;;;;18.10;100.00;100142.23;1696190;83;20968;-43
2022/06/24 05:57:35;;;;;;;15.70;8.53;;;;;;;18.18;100.00;100136.58;1695881;84;20964;-43
2022/06/24 06:00:03;;;;;;;11.53;7.72;;;;;;;18.27;100.00;100132.61;1666187;84;20972;-43
2022/06/24 06:02:30;;;;;;;12.58;7.95;;;;;;;18.43;100.00;100127.34;1644314;84;21553;-43
2022/06/24 06:04:57;;;;;;;8.60;7.90;;;;;;;18.58;100.00;100131.73;1696033;84;21073;-43
2022/06/24 06:07:23;;;;;;;13.83;8.35;;;;;;;18.80;100.00;100127.84;1695980;84;20913;-42
2022/06/24 06:09:50;;;;;;;12.00;8.95;;;;;;;18.90;100.00;100126.39;1695859;83;20960;-42
2022/06/24 06:12:17;;;;;;;16.67;9.98;;;;;;;18.89;100.00;100122.08;1696059;84;20932;-42
2022/06/24 06:14:44;;;;;;;11.50;8.60;;;;;;;18.96;100.00;100130.44;1696028;84;21032;-43
2022/06/24 06:17:12;;;;;;;12.93;9.15;;;;;;;19.01;100.00;100128.86;1696018;84;21104;-42
2022/06/24 06:19:38;;;;;;;13.78;9.85;;;;;;;19.07;100.00;100132.42;1695919;84;20988;-42
2022/06/24 06:22:05;;;;;;;10.03;9.05;;;;;;;19.06;100.00;100130.28;1696016;84;21019;-42
2022/06/24 06:24:32;;;;;;;14.07;8.85;;;;;;;19.04;100.00;100124.30;1696044;84;21012;-42
2022/06/24 06:26:59;;;;;;;14.25;8.88;;;;;;;19.02;100.00;100121.37;1696118;84;20884;-42
2022/06/24 06:29:26;;;;;;;16.45;9.20;;;;;;;19.04;100.00;100122.13;1696078;84;21159;-43
2022/06/24 06:31:53;;;;;;;13.53;8.45;;;;;;;19.03;100.00;100119.98;1695963;84;21060;-43
2022/06/24 06:34:20;;;;;;;11.28;8.58;;;;;;;19.02;100.00;100120.92;1696058;84;20972;-43
2022/06/24 06:36:47;;;;;;;17.27;9.73;;;;;;;18.99;100.00;100126.34;1666327;84;21000;-43
2022/06/24 06:39:13;;;;;;;9.95;8.48;;;;;;;18.98;100.00;100122.04;1695955;83;21013;-43
2022/06/24 06:41:41;;;;;;;9.15;8.25;;;;;;;19.02;100.00;100113.50;1696178;83;21069;-43
2022/06/24 06:44:08;;;;;;;13.75;8.40;;;;;;;19.11;100.00;100107.73;1695902;84;21411;-43
2022/06/24 06:46:35;;;;;;;13.20;8.95;;;;;;;19.15;100.00;100121.48;1695962;84;20952;-44
2022/06/24 06:49:02;;;;;;;17.37;9.85;;;;;;;19.22;100.00;100132.84;1695864;84;20968;-43
2022/06/24 06:51:29;;;;;;;10.25;8.68;;;;;;;19.24;100.00;100132.27;1696076;84;21550;-43
2022/06/24 06:53:56;;;;;;;10.35;8.98;;;;;;;19.35;100.00;100136.05;1696025;83;21222;-43
2022/06/24 06:56:22;;;;;;;12.30;8.98;;;;;;;19.45;100.00;100129.30;1695945;84;21558;-43
2022/06/24 06:58:49;;;;;;;10.32;9.23;;;;;;;19.62;100.00;100121.69;1696090;84;20905;-43
2022/06/24 07:01:15;;;;;;;10.85;8.70;;;;;;;19.72;100.00;100131.16;1695813;83;21517;-43
2022/06/24 07:03:42;;;;;;;9.55;8.63;;;;;;;19.82;99.78;100130.95;1696033;84;21004;-43
2022/06/24 07:06:09;;;;;;;12.70;8.10;;;;;;;19.91;97.48;100133.50;1695873;84;22221;-43
2022/06/24 07:08:37;;;;;;;9.50;8.00;;;;;;;19.95;96.57;100139.41;1703038;83;21010;-43
2022/06/24 07:11:04;;;;;;;12.47;8.60;;;;;;;20.03;96.13;100133.20;1721996;83;21579;-43
2022/06/24 07:13:32;;;;;;;9.38;8.10;;;;;;;20.17;96.75;100133.62;1721505;83;21539;-43
2022/06/24 07:15:58;;;;;;;14.47;8.08;;;;;;;20.34;95.54;100143.08;1692836;84;20899;-43
2022/06/24 07:18:25;;;;;;;8.68;7.92;;;;;;;20.36;94.33;100141.20;1692619;83;21861;-43
2022/06/24 07:20:52;;;;;;;12.75;8.13;;;;;;;20.37;93.65;100135.45;1721628;82;21501;-42
2022/06/24 07:23:18;;;;;;;15.98;9.08;;;;;;;20.36;93.03;100145.14;1721617;83;21053;-43
2022/06/24 07:25:45;;;;;;;15.32;8.43;;;;;;;20.38;93.14;100157.70;1693087;84;20952;-42
2022/06/24 07:28:12;;;;;;;8.93;8.05;;;;;;;20.41;93.52;100150.56;1692837;84;20951;-43
2022/06/24 07:30:39;;;;;;;19.25;8.28;;;;;;;20.52;93.77;100142.35;1692711;84;21053;-42
2022/06/24 07:33:07;;;;;;;8.63;7.70;;;;;;;20.68;94.49;100143.50;1721624;83;20900;-43
2022/06/24 07:35:34;;;;;;;11.48;6.95;;;;;;;20.86;93.85;100144.58;1721700;82;21000;-43
2022/06/24 07:38:00;;;;;;;8.45;7.35;;;;;;;20.95;92.70;100149.67;1692838;84;21517;-43
2022/06/24 07:40:27;;;;;;;13.22;7.47;;;;;;;20.94;93.54;100150.16;1692851;84;20942;-43
2022/06/24 07:42:54;;;;;;;13.18;7.15;;;;;;;20.89;92.22;100163.23;1692672;83;22066;-43
2022/06/24 07:45:21;;;;;;;8.50;7.37;;;;;;;20.86;92.22;100159.50;1692828;84;20943;-43
2022/06/24 07:47:48;;;;;;;9.68;7.60;;;;;;;20.84;92.56;100156.98;1692795;84;21489;-43
2022/06/24 07:50:14;;;;;;;8.83;6.72;;;;;;;20.93;92.86;100151.10;1721657;83;20939;-44
2022/06/24 07:52:41;;;;;;;7.87;7.10;;;;;;;20.96;91.53;100153.52;1721627;83;21557;-43
2022/06/24 07:57:54;;;;;;;9.70;7.22;;;;;;;20.92;91.28;100148.11;1692636;83;21054;-43
2022/06/24 08:00:21;;;;;;;9.63;7.17;;;;;;;20.92;91.84;100146.79;1692811;84;20931;-43
2022/06/24 08:02:47;;;;;;;9.38;6.92;;;;;;;20.90;91.14;100139.48;1692566;83;20911;-43
2022/06/24 08:05:15;;;;;;;10.95;8.10;;;;;;;20.85;91.21;100144.20;1692732;84;20967;-43
2022/06/24 08:07:43;;;;;;;10.65;7.25;;;;;;;20.88;91.49;100137.42;1692745;84;21769;-43
2022/06/24 08:10:11;;;;;;;12.35;7.25;;;;;;;20.87;91.36;100134.42;1692689;84;21018;-43
2022/06/24 08:12:39;;;;;;;13.08;7.65;;;;;;;20.81;91.11;100128.23;1692723;84;20899;-43
2022/06/24 08:15:06;;;;;;;8.30;7.15;;;;;;;20.70;91.67;100126.77;1721531;83;21493;-43
2022/06/24 08:17:34;;;;;;;10.45;8.28;;;;;;;20.59;93.09;100127.48;1721816;83;21493;-43
2022/06/24 08:20:00;;;;;;;14.13;8.98;;;;;;;20.43;94.26;100117.14;1692702;84;21063;-43
2022/06/24 08:22:27;;;;;;;15.20;9.25;;;;;;;20.30;96.28;100111.34;1692941;84;21421;-43
2022/06/24 08:24:54;;;;;;;11.80;8.95;;;;;;;20.24;97.20;100112.61;1692803;84;20978;-43
2022/06/24 08:27:22;;;;;;;10.98;8.88;;;;;;;20.24;98.36;100121.81;1692812;83;21488;-43
2022/06/24 08:29:48;;;;;;;13.72;8.70;;;;;;;20.17;99.44;100125.75;1721505;83;20860;-43
2022/06/24 08:32:15;;;;;;;9.88;8.85;;;;;;;20.01;99.00;100128.52;1721695;83;21320;-43
2022/06/24 08:34:42;;;;;;;10.55;8.70;;;;;;;19.89;100.00;100129.27;1692564;84;20939;-43
2022/06/24 08:37:08;;;;;;;11.88;8.63;;;;;;;19.86;100.00;100115.85;1692977;84;21582;-43
2022/06/24 08:39:35;;;;;;;10.13;9.00;;;;;;;19.89;100.00;100108.27;1692651;84;20923;-43
2022/06/24 08:42:03;;;;;;;9.33;8.28;;;;;;;20.03;100.00;100100.36;1721654;82;21496;-43
2022/06/24 08:44:30;;;;;;;14.58;8.60;;;;;;;20.23;100.00;100104.81;1721483;83;21204;-43
2022/06/24 08:46:56;;;;;;;13.20;9.10;;;;;;;20.37;99.78;100098.66;1692717;83;20935;-43
2022/06/24 08:49:23;;;;;;;11.55;8.60;;;;;;;20.49;99.14;100099.64;1692901;84;21465;-43
2022/06/24 08:51:51;;;;;;;12.43;8.10;;;;;;;20.54;97.22;100106.74;1667211;84;21057;-43
2022/06/24 08:54:21;;;;;;;9.98;8.88;;;;;;;20.54;97.69;100112.00;1692841;84;21025;-43
2022/06/24 08:56:47;;;;;;;13.80;9.28;;;;;;;20.44;95.52;100107.82;1692842;84;21937;-43
2022/06/24 08:59:14;;;;;;;13.85;9.30;;;;;;;20.34;95.67;100123.38;1721462;83;20987;-44
2022/06/24 09:01:41;;;;;;;11.78;9.35;;;;;;;20.27;95.95;100112.03;1721551;83;20896;-43
2022/06/24 09:04:09;;;;;;;14.87;9.80;;;;;;;20.27;96.55;100110.72;1692747;84;20916;-43
2022/06/24 09:06:39;;;;;;;10.60;9.50;;;;;;;20.30;97.04;100112.66;1692766;83;21033;-44
2022/06/24 09:09:07;;;;;;;10.25;9.30;;;;;;;20.34;96.81;100115.48;1692751;84;21173;-43
2022/06/24 09:11:42;;;;;;;14.53;9.65;;;;;;;20.29;95.83;100120.17;1721642;83;20900;-43
2022/06/24 09:14:09;;;;;;;20.85;9.53;;;;;;;20.20;95.50;100124.72;1721613;82;20943;-44
2022/06/24 09:16:37;;;;;;;19.30;11.53;;;;;;;20.03;95.92;100121.38;1692709;84;20994;-43
2022/06/24 09:19:06;;;;;;;12.25;10.38;;;;;;;19.89;96.40;100130.09;1722231;83;20923;-43
2022/06/24 09:21:39;;;;;;;12.07;9.68;;;;;;;19.75;98.01;100124.40;1703280;82;21162;-43
2022/06/24 09:24:06;;;;;;;13.65;10.48;;;;;;;19.64;98.88;100130.80;1703356;84;20920;-44
2022/06/24 09:26:41;;;;;;;14.35;10.30;;;;;;;19.57;99.89;100132.09;1677204;84;21015;-43
2022/06/24 09:29:13;;;;;;;20.87;10.97;;;;;;;19.51;100.00;100134.16;1721901;82;20944;-43
2022/06/24 09:31:40;;;;;;;20.27;11.85;;;;;;;19.46;100.00;100141.96;1692847;84;20907;-44
2022/06/24 09:34:13;;;;;;;15.25;11.75;;;;;;;19.37;100.00;100149.92;1691419;83;21806;-44
2022/06/24 09:36:43;;;;;;;16.32;11.35;;;;;;;19.28;100.00;100148.69;1721664;83;21540;-44
2022/06/24 09:39:14;;;;;;;19.65;10.98;;;;;;;19.21;100.00;100144.27;1692739;84;21026;-43
2022/06/24 09:41:48;;;;;;;18.62;11.97;;;;;;;19.14;100.00;100142.09;1691185;84;20900;-43
2022/06/24 09:44:15;;;;;;;22.25;12.90;;;;;;;19.06;100.00;100135.53;1721677;83;20931;-43
2022/06/24 09:46:42;;;;;;;18.15;12.88;;;;;;;18.94;100.00;100126.58;1692926;83;21164;-44
2022/06/24 09:49:15;;;;;;;15.43;12.30;;;;;;;18.81;100.00;100125.14;1691186;84;20999;-44
2022/06/24 09:51:44;;;;;;;20.55;13.85;;;;;;;18.67;100.00;100127.70;1721768;83;20995;-44
2022/06/24 09:54:12;;;;;;;18.30;13.65;;;;;;;18.50;100.00;100131.30;1692867;84;21505;-44
2022/06/24 09:56:39;;;;;;;19.32;13.68;;;;;;;18.34;100.00;100130.02;1691283;83;20876;-44
2022/06/24 10:01:52;;;;;;;19.37;13.93;;;;;;;18.13;100.00;100118.97;1671255;84;20990;-44
2022/06/24 10:04:19;;;;;;;22.87;14.05;;;;;;;18.04;100.00;100115.08;1691110;84;21026;-44
2022/06/24 10:06:48;;;;;;;18.67;14.35;;;;;;;17.98;100.00;100120.16;1721634;83;20935;-44
2022/06/24 10:09:19;;;;;;;22.37;13.98;;;;;;;17.91;100.00;100118.81;1690654;84;21015;-44
2022/06/24 10:11:45;;;;;;;19.37;14.55;;;;;;;17.85;100.00;100112.61;1695913;84;21081;-44
2022/06/24 10:14:12;;;;;;;22.07;14.70;;;;;;;17.78;100.00;100102.44;1695931;84;21613;-44
2022/06/24 10:16:42;;;;;;;24.90;16.10;;;;;;;17.75;100.00;100099.17;1696064;84;21123;-44
2022/06/24 10:19:10;;;;;;;21.27;14.18;;;;;;;17.69;100.00;100079.40;1695872;83;20925;-44
2022/06/24 10:21:37;;;;;;;26.77;14.98;;;;;;;17.69;100.00;100070.72;1695521;84;20941;-44
2022/06/24 10:24:12;;;;;;;22.70;14.28;;;;;;;17.65;100.00;100070.03;1695875;83;21060;-44
2022/06/24 10:26:40;;;;;;;25.88;15.72;;;;;;;17.62;100.00;100081.97;1695889;83;21514;-44
2022/06/24 10:29:17;;;;;;;20.77;14.95;;;;;;;17.61;100.00;100086.83;1696005;84;20901;-44
2022/06/24 10:31:54;;;;;;;18.77;13.62;;;;;;;17.59;100.00;100084.76;1696009;84;20999;-44
2022/06/24 10:34:32;;;;;;;20.20;14.50;;;;;;;17.57;100.00;100099.22;1695986;84;21467;-44
2022/06/24 10:37:22;;;;;;;23.35;15.78;;;;;;;17.55;100.00;100113.30;1695954;83;21205;-45
2022/06/24 10:39:51;;;;;;;46.42;20.10;;;;;;;17.51;100.00;100137.02;1695980;84;20869;-45
2022/06/24 10:42:21;;;;;;;27.32;16.12;;;;;;;17.47;100.00;100116.34;1695954;84;20980;-44
2022/06/24 10:45:00;;;;;;;24.87;17.82;;;;;;;17.42;100.00;100096.95;1695971;84;20969;-44
2022/06/24 10:47:41;;;;;;;35.28;21.15;;;;;;;17.40;100.00;100102.73;1695626;84;21011;-44
2022/06/24 10:50:11;;;;;;;36.35;19.23;;;;;;;17.39;100.00;100108.89;1696020;84;21166;-44
2022/06/24 10:52:55;;;;;;;25.43;16.67;;;;;;;17.39;100.00;100094.51;1695794;83;20968;-44
2022/06/24 10:55:28;;;;;;;23.02;14.95;;;;;;;17.39;100.00;100103.66;1696132;84;20965;-44
2022/06/24 10:58:04;;;;;;;22.70;15.13;;;;;;;17.37;100.00;100098.98;1695875;84;21522;-45
2022/06/24 11:00:48;;;;;;;33.98;15.15;;;;;;;17.35;100.00;100092.51;1696027;83;20944;-45
2022/06/24 11:03:32;;;;;;;39.65;18.50;;;;;;;17.36;100.00;100079.81;1695962;84;21168;-44
2022/06/24 11:05:59;;;;;;;32.50;16.37;;;;;;;17.38;100.00;100082.36;1695955;84;21019;-44
2022/06/24 11:08:26;;;;;;;23.38;11.70;;;;;;;17.37;100.00;100089.82;1695998;84;20925;-44
2022/06/24 11:10:54;;;;;;;35.43;16.17;;;;;;;17.29;100.00;100091.53;1697622;83;21023;-44
2022/06/24 11:13:23;;;;;;;15.95;10.55;;;;;;;17.13;100.00;100086.25;1698560;84;21011;-44
2022/06/24 11:15:58;;;;;;;12.25;8.78;;;;;;;16.90;100.00;100076.93;1698448;84;21186;-44
2022/06/24 11:18:32;;;;;;;21.43;7.20;;;;;;;16.70;100.00;100078.80;1698541;84;21486;-44
2022/06/24 11:21:04;;;;;;;12.30;5.85;;;;;;;16.55;100.00;100100.02;1698086;83;20885;-44
2022/06/24 16:33:27;;;;;;;10.28;5.08;;;;;;;15.54;100.00;100269.45;1849756;76;22716;-43
2022/06/24 16:35:54;;;;;;;6.33;4.78;;;;;;;15.51;100.00;100272.55;1773657;79;20991;-43
2022/06/24 16:38:21;;;;;;;5.05;4.65;;;;;;;15.54;100.00;100283.80;1782350;80;21129;-43
2022/06/24 16:40:48;;;;;;;4.70;4.05;;;;;;;15.58;100.00;100290.09;1777416;80;20963;-43
2022/06/24 16:43:17;;;;;;;3.40;3.20;;;;;;;15.60;100.00;100293.48;1804656;78;20887;-43